Terminal Aerodrome Forecast
Issued by NWS Sioux Falls, SD

Home | Current Version | Previous Version | Text Only | Print | Product List | Glossary On
Versions: 1 2 3 4 5 6 7 8 9 10 11 12 13
000
FTUS43 KFSD 222320
TAFSUX
TAF
KSUX 222320Z 2300/2324 17008KT P6SM SKC
     FM230800 19004KT P6SM FEW200
     FM231000 23005KT P6SM SCT200 WS012/32040KT
     FM231400 31014KT P6SM SCT250
     FM231700 31021G31KT P6SM FEW200
     FM232000 31027G39KT P6SM FEW150=

USA.gov is the U.S. government's official web portal to all federal, state and local government web resources and services.